createdAt,value
2023-05-02T00:01:05.162Z,8.96
2023-05-02T00:03:33.123Z,9.05
2023-05-02T00:06:01.333Z,8.78
2023-05-02T00:08:29.049Z,8.81
2023-05-02T00:10:56.800Z,8.77
2023-05-02T00:13:24.546Z,7.74
2023-05-02T00:15:52.310Z,8.54
2023-05-02T00:18:20.156Z,8.76
2023-05-02T00:20:47.971Z,8.34
2023-05-02T00:23:15.815Z,8.21
2023-05-02T00:25:46.795Z,8.31
2023-05-02T00:28:14.517Z,8.27
2023-05-02T00:30:45.776Z,7.87
2023-05-02T00:33:14.791Z,8.07
2023-05-02T00:35:42.986Z,7.73
2023-05-02T00:38:10.737Z,6.58
2023-05-02T00:40:46.089Z,7.21
2023-05-02T00:43:14.657Z,7.71
2023-05-02T00:45:43.585Z,7.33
2023-05-02T00:48:11.482Z,7.39
2023-05-02T00:50:42.826Z,7.64
2023-05-02T00:53:10.986Z,7.79
2023-05-02T00:55:38.838Z,7.54
2023-05-02T00:58:12.718Z,8.00
2023-05-02T01:01:08.802Z,8.21
2023-05-02T01:03:47.094Z,6.82
2023-05-02T01:06:41.415Z,7.65
2023-05-02T01:09:42.523Z,7.60
2023-05-02T01:12:26.246Z,7.72
2023-05-02T01:14:57.386Z,7.40
2023-05-02T01:17:28.619Z,7.43
2023-05-02T01:20:00.552Z,7.74
2023-05-02T01:22:30.204Z,7.50
2023-05-02T01:25:01.215Z,7.73
2023-05-02T01:28:09.354Z,7.44
2023-05-02T01:30:37.711Z,7.35
2023-05-02T01:33:05.650Z,7.46
2023-05-02T01:35:33.528Z,7.05
2023-05-02T01:38:01.384Z,6.39
2023-05-02T01:40:29.344Z,6.77
2023-05-02T01:42:57.121Z,6.94
2023-05-02T01:45:24.897Z,7.29
2023-05-02T01:47:52.696Z,7.44
2023-05-02T01:50:22.008Z,7.58
2023-05-02T01:52:50.751Z,7.66
2023-05-02T01:55:18.561Z,7.68
2023-05-02T01:57:47.203Z,7.45
2023-05-02T02:00:17.129Z,7.19
2023-05-02T02:02:45.736Z,7.52
2023-05-02T02:05:16.145Z,7.66
2023-05-02T02:07:44.235Z,7.60
2023-05-02T02:10:12.580Z,6.45
2023-05-02T02:12:49.222Z,6.95
2023-05-02T02:15:16.907Z,6.40
2023-05-02T02:17:48.142Z,7.09
2023-05-02T02:20:16.070Z,7.42
2023-05-02T02:22:43.852Z,7.45
2023-05-02T02:25:12.258Z,7.58
2023-05-02T02:27:40.386Z,7.53
2023-05-02T02:30:12.346Z,6.86
2023-05-02T02:32:40.222Z,6.87
2023-05-02T02:35:08.294Z,7.07
2023-05-02T02:37:43.144Z,7.07
2023-05-02T02:40:45.048Z,7.49
2023-05-02T02:43:24.864Z,6.67
2023-05-02T02:45:52.635Z,7.16
2023-05-02T02:48:34.967Z,7.19
2023-05-02T02:51:14.062Z,5.72
2023-05-02T02:54:25.741Z,6.92
2023-05-02T02:57:02.823Z,7.00
2023-05-02T02:59:35.465Z,7.18
2023-05-02T03:02:08.561Z,6.66
2023-05-02T03:04:38.456Z,6.03
2023-05-02T03:07:06.210Z,6.96
2023-05-02T03:09:47.249Z,6.95
2023-05-02T03:12:21.223Z,6.76
2023-05-02T03:14:50.335Z,6.60
2023-05-02T03:17:18.842Z,6.61
2023-05-02T03:19:47.409Z,6.90
2023-05-02T03:22:15.402Z,6.67
2023-05-02T03:24:43.277Z,7.01
2023-05-02T03:27:13.235Z,5.77
2023-05-02T03:29:43.284Z,6.35
2023-05-02T03:32:13.059Z,6.71
2023-05-02T03:34:43.021Z,6.59
2023-05-02T03:37:11.601Z,5.42
2023-05-02T03:39:39.430Z,5.30
2023-05-02T03:42:07.182Z,5.93
2023-05-02T03:44:34.942Z,6.17
2023-05-02T03:47:03.497Z,5.35
2023-05-02T03:49:37.386Z,6.42
2023-05-02T03:52:05.986Z,6.54
2023-05-02T03:54:36.010Z,5.26
2023-05-02T03:57:04.920Z,5.98
2023-05-02T03:59:35.230Z,5.81
2023-05-02T04:02:11.396Z,6.68
2023-05-02T04:04:46.560Z,6.68
2023-05-02T04:07:19.611Z,6.49
2023-05-02T04:09:53.462Z,6.76
2023-05-02T04:12:21.629Z,6.87
2023-05-02T04:14:52.191Z,6.96
2023-05-02T04:17:21.918Z,6.41
2023-05-02T04:19:51.456Z,7.19
2023-05-02T04:22:20.785Z,7.24
2023-05-02T04:24:54.708Z,7.47
2023-05-02T04:27:23.539Z,7.77
2023-05-02T04:29:53.607Z,7.99
2023-05-02T04:32:21.553Z,7.01
2023-05-02T04:34:50.196Z,7.78
2023-05-02T04:37:18.649Z,7.79
2023-05-02T04:39:47.641Z,8.16
2023-05-02T04:42:21.704Z,8.48
2023-05-02T04:44:57.433Z,8.41
2023-05-02T04:47:25.457Z,8.85
2023-05-02T04:49:53.280Z,8.77
2023-05-02T04:52:21.055Z,8.93
2023-05-02T04:54:48.857Z,9.17
2023-05-02T04:57:16.671Z,9.14
2023-05-02T04:59:48.594Z,9.28
2023-05-02T05:02:16.509Z,9.51
2023-05-02T05:04:46.049Z,9.69
2023-05-02T05:07:14.396Z,9.87
2023-05-02T05:09:44.658Z,10.13
2023-05-02T05:12:12.556Z,9.95
2023-05-02T05:14:40.494Z,10.23
2023-05-02T05:17:09.089Z,10.35
2023-05-02T05:19:36.941Z,10.26
2023-05-02T05:22:04.879Z,10.67
2023-05-02T05:24:33.403Z,10.95
2023-05-02T05:27:01.661Z,10.92
2023-05-02T05:29:32.637Z,11.17
2023-05-02T05:32:00.746Z,11.17
2023-05-02T05:34:29.803Z,11.34
2023-05-02T05:37:00.627Z,11.34
2023-05-02T05:39:29.203Z,11.63
2023-05-02T05:41:59.059Z,11.70
2023-05-02T05:44:27.685Z,11.62
2023-05-02T05:46:55.529Z,11.66
2023-05-02T05:49:25.514Z,11.74
2023-05-02T05:51:53.936Z,11.74
2023-05-02T05:54:21.948Z,11.95
2023-05-02T05:56:49.702Z,11.85
2023-05-02T05:59:20.186Z,11.99
2023-05-02T06:01:49.080Z,12.40
2023-05-02T06:04:18.717Z,12.49
2023-05-02T06:06:51.573Z,12.73
2023-05-02T06:09:19.548Z,12.94
2023-05-02T06:11:47.298Z,12.98
2023-05-02T06:14:15.218Z,13.36
2023-05-02T06:16:45.054Z,13.28
2023-05-02T06:19:14.944Z,13.63
2023-05-02T06:21:42.816Z,13.66
2023-05-02T06:24:10.661Z,13.93
2023-05-02T06:26:38.455Z,14.14
2023-05-02T06:29:06.186Z,13.97
2023-05-02T06:31:33.983Z,14.23
2023-05-02T06:34:01.715Z,14.49
2023-05-02T06:36:30.080Z,14.62
2023-05-02T06:38:57.823Z,14.74
2023-05-02T06:41:25.611Z,14.48
2023-05-02T06:43:53.402Z,14.89
2023-05-02T06:46:21.533Z,14.82
2023-05-02T06:48:49.235Z,14.59
2023-05-02T06:51:17.126Z,15.28
2023-05-02T06:53:44.893Z,15.25
2023-05-02T06:56:12.638Z,15.22
2023-05-02T06:58:40.587Z,15.47
2023-05-02T07:01:08.488Z,15.49
2023-05-02T07:03:36.494Z,14.90
2023-05-02T07:06:04.364Z,15.40
2023-05-02T07:08:32.297Z,16.30
2023-05-02T07:11:00.104Z,16.56
2023-05-02T07:13:27.791Z,15.52
2023-05-02T07:15:56.629Z,16.58
2023-05-02T07:18:24.393Z,16.86
2023-05-02T07:20:52.147Z,16.97
2023-05-02T07:23:20.785Z,17.42
2023-05-02T07:25:48.599Z,17.74
2023-05-02T07:28:16.385Z,17.13
2023-05-02T07:30:44.402Z,17.35
2023-05-02T07:33:12.215Z,16.81
2023-05-02T07:35:40.042Z,17.41
2023-05-02T07:38:07.821Z,18.06
2023-05-02T07:40:35.683Z,17.96
2023-05-02T07:43:03.406Z,18.00
2023-05-02T07:45:31.215Z,17.25
2023-05-02T07:47:58.984Z,18.20
2023-05-02T07:50:27.332Z,17.76
2023-05-02T07:52:56.017Z,18.49
2023-05-02T07:55:26.578Z,18.23
2023-05-02T07:57:54.392Z,17.54
2023-05-02T08:00:22.123Z,18.20
2023-05-02T08:02:49.941Z,18.59
2023-05-02T08:05:17.949Z,18.79
2023-05-02T08:07:46.563Z,18.37
2023-05-02T08:10:14.319Z,19.17
2023-05-02T08:12:42.500Z,19.19
2023-05-02T08:15:12.006Z,19.64
2023-05-02T08:17:39.875Z,19.82
2023-05-02T08:20:08.193Z,19.40
2023-05-02T08:22:36.036Z,18.83
2023-05-02T08:25:04.018Z,19.58
2023-05-02T08:27:31.767Z,19.87
2023-05-02T08:30:01.061Z,20.19
2023-05-02T08:32:30.185Z,19.47
2023-05-02T08:34:58.216Z,18.92
2023-05-02T08:37:26.184Z,19.09
2023-05-02T08:39:53.995Z,19.36
2023-05-02T08:42:21.860Z,18.62
2023-05-02T08:44:50.128Z,18.72
2023-05-02T08:47:17.938Z,19.30
2023-05-02T08:49:46.083Z,19.12
2023-05-02T08:52:13.928Z,19.43
2023-05-02T08:54:41.732Z,19.19
2023-05-02T08:57:09.549Z,18.95
2023-05-02T08:59:37.297Z,19.71
2023-05-02T09:02:28.742Z,19.56
2023-05-02T09:04:56.592Z,19.55
2023-05-02T09:07:24.266Z,19.40
2023-05-02T09:09:52.073Z,19.73
2023-05-02T09:12:26.472Z,20.28
2023-05-02T09:15:14.318Z,20.23
2023-05-02T09:17:43.142Z,19.62
2023-05-02T09:20:12.130Z,19.17
2023-05-02T09:22:40.144Z,20.05
2023-05-02T09:25:08.223Z,20.27
2023-05-02T09:27:55.391Z,19.36
2023-05-02T09:30:24.985Z,19.75
2023-05-02T09:32:55.324Z,19.64
2023-05-02T09:35:26.545Z,19.03
2023-05-02T09:37:57.343Z,19.28
2023-05-02T09:40:25.346Z,19.56
2023-05-02T09:42:53.113Z,20.50
2023-05-02T09:45:25.495Z,20.63
2023-05-02T09:47:53.436Z,20.80
2023-05-02T09:50:39.958Z,21.13
2023-05-02T09:53:09.548Z,20.77
2023-05-02T09:55:37.811Z,21.52
2023-05-02T09:58:06.678Z,21.70
2023-05-02T10:00:44.492Z,21.37
2023-05-02T10:03:15.752Z,20.36
2023-05-02T10:05:44.332Z,21.43
2023-05-02T10:08:12.224Z,21.16
2023-05-02T10:10:40.938Z,21.79
2023-05-02T10:13:09.027Z,20.85
2023-05-02T10:15:37.814Z,20.52
2023-05-02T10:18:14.977Z,20.90
2023-05-02T10:20:57.613Z,20.95
2023-05-02T10:23:29.419Z,20.64
2023-05-02T10:26:00.512Z,20.50
2023-05-02T10:28:28.548Z,20.39
2023-05-02T10:30:56.345Z,20.58
2023-05-02T10:33:24.214Z,20.69
2023-05-02T10:35:52.032Z,20.47
2023-05-02T10:38:24.793Z,20.87
2023-05-02T10:40:58.109Z,20.63
2023-05-02T10:43:31.157Z,20.70
2023-05-02T10:45:58.945Z,20.68
2023-05-02T10:48:26.883Z,20.64
2023-05-02T10:50:56.045Z,21.31
2023-05-02T10:53:28.072Z,20.81
2023-05-02T10:56:21.901Z,20.44
2023-05-02T10:58:50.810Z,20.57
2023-05-02T11:01:31.098Z,20.48
2023-05-02T11:03:59.415Z,20.11
2023-05-02T11:06:30.909Z,20.22
2023-05-02T11:09:15.193Z,20.91
2023-05-02T11:11:46.174Z,21.53
2023-05-02T11:14:26.232Z,20.74
2023-05-02T11:17:06.323Z,21.79
2023-05-02T11:19:43.163Z,21.85
2023-05-02T11:22:26.999Z,20.95
2023-05-02T11:24:54.803Z,21.32
2023-05-02T11:27:31.534Z,21.30
2023-05-02T11:29:59.721Z,21.04
2023-05-02T11:32:46.289Z,21.16
2023-05-02T11:35:26.923Z,21.55
2023-05-02T11:38:04.714Z,20.88
2023-05-02T11:40:32.707Z,20.99
2023-05-02T11:43:00.751Z,21.16
2023-05-02T11:45:36.322Z,21.26
2023-05-02T11:48:07.565Z,21.37
2023-05-02T11:51:02.249Z,21.48
2023-05-02T11:53:31.383Z,20.94
2023-05-02T11:56:01.337Z,20.99
2023-05-02T11:58:30.153Z,21.03
2023-05-02T12:00:58.175Z,21.61
2023-05-02T12:03:30.358Z,21.24
2023-05-02T12:06:09.984Z,21.01
2023-05-02T12:08:37.995Z,21.04
2023-05-02T12:11:06.747Z,20.73
2023-05-02T12:13:34.549Z,21.01
2023-05-02T12:16:02.472Z,21.39
2023-05-02T12:18:30.245Z,21.39
2023-05-02T12:20:58.085Z,21.07
2023-05-02T12:23:28.501Z,21.38
2023-05-02T12:25:56.508Z,21.82
2023-05-02T12:28:24.300Z,22.59
2023-05-02T12:30:53.301Z,21.68
2023-05-02T12:33:21.053Z,21.76
2023-05-02T12:35:49.163Z,22.06
2023-05-02T12:38:22.938Z,21.57
2023-05-02T12:40:54.786Z,21.64
2023-05-02T12:43:22.600Z,21.85
2023-05-02T12:45:50.816Z,21.11
2023-05-02T12:48:23.648Z,21.60
2023-05-02T12:50:52.049Z,21.65
2023-05-02T12:53:38.711Z,21.78
2023-05-02T12:56:07.044Z,22.34
2023-05-02T12:58:42.843Z,21.93
2023-05-02T13:01:10.860Z,22.59
2023-05-02T13:03:38.769Z,23.10
2023-05-02T13:06:06.711Z,22.66
2023-05-02T13:08:34.608Z,21.79
2023-05-02T13:11:03.034Z,21.97
2023-05-02T13:13:31.178Z,22.01
2023-05-02T13:15:58.966Z,22.10
2023-05-02T13:18:28.321Z,22.53
2023-05-02T13:20:56.289Z,22.82
2023-05-02T13:23:24.065Z,22.01
2023-05-02T13:25:51.852Z,22.52
2023-05-02T13:28:19.662Z,23.01
2023-05-02T13:30:47.535Z,22.94
2023-05-02T13:33:15.465Z,22.51
2023-05-02T13:35:43.208Z,21.90
2023-05-02T13:38:11.102Z,21.95
2023-05-02T13:40:39.035Z,22.17
2023-05-02T13:43:06.824Z,22.35
2023-05-02T13:45:34.834Z,22.21
2023-05-02T13:48:02.633Z,22.51
2023-05-02T13:50:30.809Z,22.30
2023-05-02T13:52:58.539Z,22.09
2023-05-02T13:55:26.402Z,21.82
2023-05-02T13:57:54.160Z,21.76
2023-05-02T14:00:22.004Z,22.12
2023-05-02T14:02:49.788Z,22.73
2023-05-02T14:05:17.676Z,22.09
2023-05-02T14:07:45.848Z,21.72
2023-05-02T14:10:13.672Z,21.79
2023-05-02T14:12:41.672Z,22.14
2023-05-02T14:15:09.768Z,22.01
2023-05-02T14:17:37.530Z,21.96
2023-05-02T14:20:06.082Z,20.89
2023-05-02T14:22:33.957Z,21.04
2023-05-02T14:25:01.862Z,20.81
2023-05-02T14:27:29.607Z,20.96
2023-05-02T14:29:57.448Z,20.67
2023-05-02T14:32:25.206Z,21.27
2023-05-02T14:34:52.963Z,20.79
2023-05-02T14:37:20.787Z,20.75
2023-05-02T14:39:54.718Z,20.84
2023-05-02T14:42:23.438Z,20.58
2023-05-02T14:44:51.796Z,20.40
2023-05-02T14:47:19.592Z,20.75
2023-05-02T14:49:47.494Z,20.35
2023-05-02T14:52:15.432Z,20.61
2023-05-02T14:54:43.139Z,21.05
2023-05-02T14:57:11.356Z,20.45
2023-05-02T14:59:39.546Z,20.32
2023-05-02T15:02:07.606Z,20.12
2023-05-02T15:04:35.510Z,20.03
2023-05-02T15:07:06.970Z,19.63
2023-05-02T15:09:34.890Z,20.58
2023-05-02T15:12:05.457Z,20.61
2023-05-02T15:14:33.186Z,20.54
2023-05-02T15:17:01.102Z,20.29
2023-05-02T15:19:29.561Z,20.34
2023-05-02T15:21:57.790Z,20.83
2023-05-02T15:24:25.712Z,20.31
2023-05-02T15:26:53.614Z,19.43
2023-05-02T15:29:21.427Z,19.77
2023-05-02T15:31:49.341Z,19.89
2023-05-02T15:34:17.052Z,19.94
2023-05-02T15:36:44.894Z,20.81
2023-05-02T15:39:12.565Z,20.46
2023-05-02T15:41:40.453Z,19.91
2023-05-02T15:44:08.215Z,19.74
2023-05-02T15:46:36.078Z,19.89
2023-05-02T15:49:03.885Z,19.28
2023-05-02T15:51:31.629Z,19.59
2023-05-02T15:53:59.676Z,19.30
2023-05-02T15:56:27.485Z,19.60
2023-05-02T15:58:55.278Z,19.58
2023-05-02T16:01:24.312Z,20.08
2023-05-02T16:03:52.193Z,20.13
2023-05-02T16:06:20.029Z,20.39
2023-05-02T16:08:47.761Z,20.24
2023-05-02T16:11:18.349Z,20.35
2023-05-02T16:13:46.109Z,20.07
2023-05-02T16:16:14.092Z,19.37
2023-05-02T16:18:41.875Z,19.76
2023-05-02T16:21:09.701Z,20.23
2023-05-02T16:23:37.525Z,19.43
2023-05-02T16:26:06.007Z,19.41
2023-05-02T16:28:33.939Z,19.48
2023-05-02T16:31:11.032Z,20.26
2023-05-02T16:33:39.669Z,20.42
2023-05-02T16:36:07.630Z,20.80
2023-05-02T16:38:36.681Z,19.56
2023-05-02T16:41:06.929Z,20.29
2023-05-02T16:43:34.980Z,19.50
2023-05-02T16:46:03.567Z,18.82
2023-05-02T16:48:31.590Z,19.46
2023-05-02T16:51:01.664Z,19.98
2023-05-02T16:53:31.403Z,20.17
2023-05-02T16:55:59.866Z,18.99
2023-05-02T16:58:28.905Z,19.20
2023-05-02T17:00:56.842Z,19.61
2023-05-02T17:03:24.762Z,19.15
2023-05-02T17:05:52.544Z,19.69
2023-05-02T17:08:20.962Z,19.69
2023-05-02T17:10:50.015Z,19.89
2023-05-02T17:13:17.944Z,19.83
2023-05-02T17:15:45.853Z,19.76
2023-05-02T17:18:13.672Z,19.54
2023-05-02T17:20:41.482Z,19.39
2023-05-02T17:23:09.874Z,19.41
2023-05-02T17:25:38.334Z,19.37
2023-05-02T17:28:06.510Z,19.09
2023-05-02T17:30:34.371Z,18.68
2023-05-02T17:33:02.315Z,17.79
2023-05-02T17:35:30.235Z,17.65
2023-05-02T17:37:58.183Z,17.06
2023-05-02T17:40:26.770Z,17.75
2023-05-02T17:42:55.439Z,17.45
2023-05-02T17:45:23.386Z,16.74
2023-05-02T17:47:51.389Z,17.15
2023-05-02T17:50:19.449Z,17.18
2023-05-02T17:52:47.304Z,16.84
2023-05-02T17:55:16.461Z,17.05
2023-05-02T17:57:46.155Z,16.93
2023-05-02T18:00:14.616Z,17.36
2023-05-02T18:02:42.437Z,17.43
2023-05-02T18:05:10.580Z,17.03
2023-05-02T18:07:38.344Z,17.43
2023-05-02T18:10:06.870Z,16.90
2023-05-02T18:12:34.674Z,17.27
2023-05-02T18:15:05.278Z,17.43
2023-05-02T18:17:33.529Z,16.93
2023-05-02T18:20:04.556Z,17.08
2023-05-02T18:22:35.691Z,17.12
2023-05-02T18:25:04.176Z,17.19
2023-05-02T18:27:32.319Z,17.04
2023-05-02T18:30:00.261Z,16.80
2023-05-02T18:32:28.103Z,16.48
2023-05-02T18:34:56.547Z,16.51
2023-05-02T18:37:31.179Z,16.02
2023-05-02T18:39:59.112Z,16.24
2023-05-02T18:42:27.524Z,15.89
2023-05-02T18:44:55.335Z,16.18
2023-05-02T18:47:24.589Z,15.37
2023-05-02T18:49:56.337Z,15.86
2023-05-02T18:52:25.000Z,16.00
2023-05-02T18:54:52.742Z,15.68
2023-05-02T18:57:20.472Z,14.77
2023-05-02T18:59:48.276Z,15.29
2023-05-02T19:02:16.217Z,14.78
2023-05-02T19:04:44.061Z,15.34
2023-05-02T19:07:11.955Z,14.44
2023-05-02T19:09:40.674Z,14.50
2023-05-02T19:12:08.437Z,15.17
2023-05-02T19:14:39.646Z,14.05
2023-05-02T19:17:07.436Z,14.85
2023-05-02T19:19:35.345Z,13.70
2023-05-02T19:22:03.212Z,13.56
2023-05-02T19:24:31.009Z,13.60
2023-05-02T19:27:00.179Z,13.78
2023-05-02T19:29:28.009Z,13.42
2023-05-02T19:31:55.782Z,13.49
2023-05-02T19:34:23.551Z,13.56
2023-05-02T19:36:51.261Z,13.41
2023-05-02T19:39:19.123Z,13.08
2023-05-02T19:41:48.315Z,13.26
2023-05-02T19:44:16.463Z,13.51
2023-05-02T19:46:44.154Z,13.64
2023-05-02T19:49:11.987Z,13.09
2023-05-02T19:51:39.840Z,13.26
2023-05-02T19:54:07.653Z,12.87
2023-05-02T19:56:36.447Z,12.98
2023-05-02T19:59:04.879Z,13.06
2023-05-02T20:01:32.699Z,13.33
2023-05-02T20:04:00.580Z,13.29
2023-05-02T20:06:28.569Z,13.58
2023-05-02T20:08:56.474Z,13.20
2023-05-02T20:11:25.904Z,13.38
2023-05-02T20:13:54.480Z,13.29
2023-05-02T20:16:22.329Z,13.44
2023-05-02T20:18:50.206Z,12.89
2023-05-02T20:21:17.984Z,13.21
2023-05-02T20:23:45.689Z,13.46
2023-05-02T20:26:15.727Z,13.28
2023-05-02T20:28:43.747Z,13.35
2023-05-02T20:31:11.630Z,13.46
2023-05-02T20:33:45.479Z,13.64
2023-05-02T20:36:14.978Z,13.32
2023-05-02T20:38:44.609Z,13.46
2023-05-02T20:41:13.947Z,13.17
2023-05-02T20:43:44.938Z,13.34
2023-05-02T20:46:14.047Z,12.97
2023-05-02T20:48:42.445Z,13.03
2023-05-02T20:51:10.232Z,12.98
2023-05-02T20:53:38.968Z,12.63
2023-05-02T20:56:07.155Z,13.14
2023-05-02T20:58:34.975Z,13.95
2023-05-02T21:01:02.821Z,13.57
2023-05-02T21:03:30.635Z,13.46
2023-05-02T21:06:01.318Z,13.23
2023-05-02T21:08:29.097Z,12.84
2023-05-02T21:10:56.812Z,12.89
2023-05-02T21:13:24.544Z,12.98
2023-05-02T21:15:52.704Z,13.49
2023-05-02T21:18:20.945Z,12.59
2023-05-02T21:20:49.034Z,12.92
2023-05-02T21:23:16.760Z,12.43
2023-05-02T21:25:44.627Z,13.09
2023-05-02T21:28:12.679Z,13.00
2023-05-02T21:30:40.484Z,12.96
2023-05-02T21:33:08.290Z,12.61
2023-05-02T21:35:36.080Z,12.40
2023-05-02T21:38:04.168Z,12.54
2023-05-02T21:40:34.541Z,12.36
2023-05-02T21:43:02.304Z,12.52
2023-05-02T21:45:30.554Z,12.96
2023-05-02T21:47:58.396Z,12.57
2023-05-02T21:50:26.216Z,12.52
2023-05-02T21:52:53.900Z,12.30
2023-05-02T21:55:21.693Z,12.65
2023-05-02T21:57:49.425Z,12.40
2023-05-02T22:00:17.651Z,12.23
2023-05-02T22:02:45.783Z,12.53
2023-05-02T22:05:14.129Z,12.32
2023-05-02T22:07:42.124Z,12.49
2023-05-02T22:10:11.638Z,11.96
2023-05-02T22:12:39.371Z,12.38
2023-05-02T22:15:08.245Z,11.97
2023-05-02T22:17:35.993Z,12.21
2023-05-02T22:20:06.660Z,12.04
2023-05-02T22:22:34.364Z,12.48
2023-05-02T22:25:03.064Z,12.28
2023-05-02T22:27:30.909Z,12.53
2023-05-02T22:29:58.659Z,12.77
2023-05-02T22:32:26.913Z,12.44
2023-05-02T22:34:54.793Z,12.25
2023-05-02T22:37:22.571Z,11.96
2023-05-02T22:39:51.100Z,11.86
2023-05-02T22:42:18.897Z,12.03
2023-05-02T22:44:54.308Z,11.92
2023-05-02T22:47:23.324Z,11.78
2023-05-02T22:49:52.587Z,11.85
2023-05-02T22:52:20.893Z,11.78
2023-05-02T22:54:48.764Z,12.11
2023-05-02T22:57:16.431Z,11.93
2023-05-02T22:59:44.188Z,11.60
2023-05-02T23:02:12.445Z,12.05
2023-05-02T23:04:40.472Z,11.91
2023-05-02T23:07:08.166Z,12.12
2023-05-02T23:09:35.895Z,12.16
2023-05-02T23:12:03.987Z,12.26
2023-05-02T23:14:31.766Z,12.30
2023-05-02T23:17:01.725Z,13.16
2023-05-02T23:19:29.834Z,12.46
2023-05-02T23:21:58.066Z,12.15
2023-05-02T23:24:26.464Z,12.67
2023-05-02T23:26:54.284Z,12.84
2023-05-02T23:29:22.397Z,13.03
2023-05-02T23:31:54.577Z,13.64
2023-05-02T23:34:22.464Z,13.08
2023-05-02T23:36:51.054Z,12.90
2023-05-02T23:39:18.912Z,12.99
2023-05-02T23:41:46.650Z,13.69
2023-05-02T23:44:14.395Z,13.81
2023-05-02T23:46:42.193Z,12.98
2023-05-02T23:49:10.154Z,13.17
2023-05-02T23:51:37.885Z,13.21
2023-05-02T23:54:07.377Z,13.64
2023-05-02T23:56:35.479Z,13.08
2023-05-02T23:59:03.154Z,13.01
